Missoula, MT

9:44 PM MST on December 22, 2014 (GMT -0700)
Franklin to the Fort | Change Station
CLOSE
Current Station
Personal Weather Station
Location: Missoula, MT
Elevation: 3200 ft
Nearby Weather Stations
Active Advisory: Avalanche Warning

Elev 3200 ft 46.86 °N, 114.02 °W | Updated 5 seconds ago

Mostly Cloudy
Mostly Cloudy
31.0 °F
Feels Like 31 °F
N
0.0
Wind Variable Wind from NNW
Gusts 0.0 mph

Today
High -- | Low -- °F
--% Chance of Precip.
Yesterday
High -- | Low -- °F
Precip. -- in
8:19 AM 4:50 PM
New Moon, 2% visible
Pressure 30.34 in
Visibility 10.0 miles
Clouds Mostly Cloudy 8000 ft
Windchill 31 °F
Dew Point 29 °F
Humidity 94%
Rainfall 0.00 in
Snow Depth Not available.
UV 0 out of 12
Pollen .10 out of 12
Air Quality Not available.
Flu Activity Not available.
METAR KMSO 230353Z 32007KT 10SM BKN080 02/M05 A3026 RMK AO2 SLP272 T00171050

More Conditions Fewer Conditions

Pressure 30.34 in
Visibility 10.0 miles
Clouds Mostly Cloudy 8000 ft
Windchill 31 °F
Dew Point 29 °F
Humidity 94%
Rainfall 0.00 in
Snow Depth Not available.
UV 0 out of 12
Pollen .10 out of 12
Air Quality Not available.
Flu Activity Not available.
METAR KMSO 230353Z 32007KT 10SM BKN080 02/M05 A3026 RMK AO2 SLP272 T00171050

More Conditions Fewer Conditions

10-Day Weather Forecast

Almanac

Astronomy

Dec. 22, 2014 Rise Set
Actual Time
Civil Twilight
Nautical Twilight
Astronomical Twilight
Moon
Length of Visible Light
Length of Day
Tomorrow will be .
, % of the Moon is Illuminated

Today's Extremes

State Highs State Lows

Community

WunderPhotos

Upload Photos

1,779,778 photos uploaded!

WunderBlogs® & News

Nearby

Air Quality

  Air Quality AQ Index Pollutant
Not available.

Snow Depth

Station Depth Elevation

Earthquake Activity

City Distance Mag. Time & Date
Minimum magnitude displayed is 2.5.

Coastal Water Temperatures

Place Temperature

Nearby Weather Stations